Time;durP1;ratioP1;P1;durP2;ratioP2;P2;SDS_P1;SDS_P2;PMS_P1;PMS_P2;Temp;Humidity;BMP_temperature;BMP_pressure;BME280_temperature;BME280_humidity;BME280_pressure;Samples;Min_cycle;Max_cycle;Signal;HPM_P1;HPM_P2
2023/08/22 00:00:28;;;;;;;11.85;5.25;;;;;;;;;;5093480;28;20050;-63
2023/08/22 00:02:54;;;;;;;7.88;4.90;;;;;;;;;;5093836;28;20137;-63
2023/08/22 00:05:21;;;;;;;9.35;5.03;;;;;;;;;;5092673;28;20055;-63
2023/08/22 00:07:47;;;;;;;8.88;4.85;;;;;;;;;;5093482;28;20251;-63
2023/08/22 00:10:14;;;;;;;8.73;5.20;;;;;;;;;;5093661;28;20046;-63
2023/08/22 00:12:40;;;;;;;7.93;5.40;;;;;;;;;;5093826;28;20048;-63
2023/08/22 00:15:09;;;;;;;7.97;5.10;;;;;;;;;;5093453;28;20079;-63
2023/08/22 00:17:35;;;;;;;6.90;4.97;;;;;;;;;;5093720;28;20094;-63
2023/08/22 00:20:04;;;;;;;8.00;5.40;;;;;;;;;;5092425;28;20071;-63
2023/08/22 00:22:30;;;;;;;7.00;5.70;;;;;;;;;;5093153;28;20087;-63
2023/08/22 00:24:56;;;;;;;9.30;6.28;;;;;;;;;;5092361;28;20036;-63
2023/08/22 00:27:22;;;;;;;9.98;5.93;;;;;;;;;;5073315;28;20044;-63
2023/08/22 00:29:48;;;;;;;7.70;5.32;;;;;;;;;;5072364;28;20059;-63
2023/08/22 00:32:14;;;;;;;9.50;5.95;;;;;;;;;;5073339;28;20407;-63
2023/08/22 00:34:40;;;;;;;7.45;5.50;;;;;;;;;;5072902;28;20044;-63
2023/08/22 00:37:06;;;;;;;10.13;6.15;;;;;;;;;;5072935;28;20093;-63
2023/08/22 00:39:32;;;;;;;10.52;6.07;;;;;;;;;;5073128;28;20087;-62
2023/08/22 00:41:58;;;;;;;10.63;6.25;;;;;;;;;;5072767;28;20459;-62
2023/08/22 00:44:25;;;;;;;9.13;5.85;;;;;;;;;;5073091;28;20123;-63
2023/08/22 00:46:51;;;;;;;10.73;5.97;;;;;;;;;;5072481;28;20610;-63
2023/08/22 00:49:17;;;;;;;9.70;5.78;;;;;;;;;;5079986;28;20036;-63
2023/08/22 00:51:43;;;;;;;7.90;5.90;;;;;;;;;;5092911;28;20059;-63
2023/08/22 00:54:13;;;;;;;7.75;5.20;;;;;;;;;;5092649;28;20043;-62
2023/08/22 00:56:39;;;;;;;11.57;5.72;;;;;;;;;;5093005;28;20036;-63
2023/08/22 00:59:05;;;;;;;9.48;5.57;;;;;;;;;;5093015;28;20505;-63
2023/08/22 01:01:32;;;;;;;7.13;5.75;;;;;;;;;;5092358;28;20037;-63
2023/08/22 01:03:58;;;;;;;7.40;5.63;;;;;;;;;;5092974;28;20062;-63
2023/08/22 01:06:39;;;;;;;7.20;5.70;;;;;;;;;;5092805;28;20513;-62
2023/08/22 01:09:10;;;;;;;9.57;6.20;;;;;;;;;;5092612;28;20032;-63
2023/08/22 01:11:38;;;;;;;9.10;6.15;;;;;;;;;;5092286;28;20093;-63
2023/08/22 01:14:08;;;;;;;10.27;6.05;;;;;;;;;;5092636;28;20028;-63
2023/08/22 01:16:34;;;;;;;7.03;5.18;;;;;;;;;;5092381;28;20040;-62
2023/08/22 01:19:02;;;;;;;8.55;5.18;;;;;;;;;;5092588;28;20047;-62
2023/08/22 01:21:28;;;;;;;7.75;5.50;;;;;;;;;;5092077;28;20048;-63
2023/08/22 01:23:54;;;;;;;7.18;5.38;;;;;;;;;;5092243;28;20079;-63
2023/08/22 01:26:20;;;;;;;6.78;5.15;;;;;;;;;;5080450;28;20044;-63
2023/08/22 01:28:47;;;;;;;10.07;5.43;;;;;;;;;;5071867;28;20117;-63
2023/08/22 01:31:19;;;;;;;10.55;5.95;;;;;;;;;;5070331;28;20035;-63
2023/08/22 01:33:45;;;;;;;;;;;;;;;;;;5072480;28;20067;-63
2023/08/22 01:36:11;;;;;;;6.75;5.30;;;;;;;;;;5071728;28;19916;-63
2023/08/22 01:38:40;;;;;;;10.70;5.63;;;;;;;;;;5071459;28;20051;-63
2023/08/22 01:41:07;;;;;;;8.80;5.53;;;;;;;;;;5071659;28;20044;-63
2023/08/22 01:43:36;;;;;;;10.32;5.70;;;;;;;;;;5071876;28;20511;-63
2023/08/22 01:46:05;;;;;;;7.75;5.55;;;;;;;;;;5070239;28;20455;-63
2023/08/22 01:48:31;;;;;;;8.77;5.93;;;;;;;;;;5072693;28;20037;-63
2023/08/22 01:50:57;;;;;;;9.93;6.50;;;;;;;;;;5091590;28;20040;-63
2023/08/22 01:53:23;;;;;;;10.88;6.63;;;;;;;;;;5091559;28;20047;-63
2023/08/22 01:55:49;;;;;;;9.05;5.70;;;;;;;;;;5092060;28;20104;-63
2023/08/22 01:58:15;;;;;;;7.80;5.55;;;;;;;;;;5091902;28;20055;-63
2023/08/22 02:00:41;;;;;;;10.38;6.05;;;;;;;;;;5091429;28;20040;-63
2023/08/22 02:03:08;;;;;;;6.88;4.95;;;;;;;;;;5091766;28;20129;-62
2023/08/22 02:05:34;;;;;;;7.00;5.53;;;;;;;;;;5091965;28;20462;-63
2023/08/22 02:08:01;;;;;;;7.35;5.78;;;;;;;;;;5091145;28;20120;-63
2023/08/22 02:10:27;;;;;;;8.63;6.18;;;;;;;;;;5090548;28;20052;-62
2023/08/22 02:12:53;;;;;;;7.60;5.82;;;;;;;;;;5091857;28;20091;-63
2023/08/22 02:15:20;;;;;;;9.55;6.15;;;;;;;;;;5091100;28;20497;-63
2023/08/22 02:17:46;;;;;;;7.40;5.75;;;;;;;;;;5091707;28;20434;-63
2023/08/22 02:20:12;;;;;;;12.70;6.40;;;;;;;;;;5091621;28;20083;-63
2023/08/22 02:22:41;;;;;;;9.35;6.40;;;;;;;;;;5091107;28;20055;-62
2023/08/22 02:25:09;;;;;;;10.55;6.13;;;;;;;;;;5088458;28;20040;-62
2023/08/22 02:27:35;;;;;;;9.30;6.60;;;;;;;;;;5071299;28;20368;-62
2023/08/22 02:30:01;;;;;;;10.65;6.38;;;;;;;;;;5070592;28;20040;-63
2023/08/22 02:32:27;;;;;;;8.77;5.88;;;;;;;;;;5071491;28;20090;-62
2023/08/22 02:34:53;;;;;;;7.38;6.15;;;;;;;;;;5071360;28;20046;-63
2023/08/22 02:37:19;;;;;;;8.25;6.47;;;;;;;;;;5071109;28;20045;-63
2023/08/22 02:39:45;;;;;;;8.52;6.70;;;;;;;;;;5070883;28;20093;-63
2023/08/22 02:42:11;;;;;;;11.35;6.60;;;;;;;;;;5071077;28;20043;-63
2023/08/22 02:44:37;;;;;;;10.00;6.80;;;;;;;;;;5070669;28;20036;-63
2023/08/22 02:47:03;;;;;;;9.25;6.45;;;;;;;;;;5071320;28;20048;-63
2023/08/22 02:49:29;;;;;;;13.77;7.38;;;;;;;;;;5082497;28;20115;-63
2023/08/22 02:51:55;;;;;;;11.63;7.78;;;;;;;;;;5094918;28;20086;-62
2023/08/22 02:54:21;;;;;;;8.15;6.88;;;;;;;;;;5095394;28;20073;-63
2023/08/22 02:56:47;;;;;;;11.35;6.40;;;;;;;;;;5095042;28;20040;-63
2023/08/22 02:59:13;;;;;;;10.75;7.85;;;;;;;;;;5094873;28;20043;-63
2023/08/22 03:01:39;;;;;;;10.75;7.22;;;;;;;;;;5095120;28;20475;-63
2023/08/22 03:04:05;;;;;;;11.95;7.85;;;;;;;;;;5095202;28;20633;-62
2023/08/22 03:06:31;;;;;;;13.38;7.15;;;;;;;;;;5094716;28;20073;-62
2023/08/22 03:08:57;;;;;;;10.48;7.03;;;;;;;;;;5095110;28;20477;-62
2023/08/22 03:11:23;;;;;;;10.90;7.50;;;;;;;;;;5095064;28;20123;-63
2023/08/22 03:13:49;;;;;;;12.18;7.50;;;;;;;;;;5094651;28;20040;-63
2023/08/22 03:16:16;;;;;;;9.93;6.57;;;;;;;;;;5094768;28;20044;-63
2023/08/22 03:18:42;;;;;;;11.27;6.88;;;;;;;;;;5094835;28;20444;-62
2023/08/22 03:21:08;;;;;;;11.98;7.53;;;;;;;;;;5093958;28;20052;-62
2023/08/22 03:23:34;;;;;;;12.32;7.15;;;;;;;;;;5094726;28;20043;-63
2023/08/22 03:26:00;;;;;;;15.15;7.72;;;;;;;;;;5085450;28;20043;-62
2023/08/22 03:28:27;;;;;;;13.93;7.72;;;;;;;;;;5073796;28;20380;-63
2023/08/22 03:30:56;;;;;;;10.25;7.32;;;;;;;;;;5073125;28;20094;-63
2023/08/22 03:33:22;;;;;;;11.68;7.13;;;;;;;;;;5074411;28;20036;-63
2023/08/22 03:35:48;;;;;;;10.68;7.80;;;;;;;;;;5073607;28;20070;-62
2023/08/22 03:38:14;;;;;;;10.68;7.43;;;;;;;;;;5073900;28;20041;-63
2023/08/22 03:40:40;;;;;;;14.05;7.40;;;;;;;;;;5074089;28;20055;-63
2023/08/22 03:43:06;;;;;;;11.40;7.20;;;;;;;;;;5073344;28;20049;-63
2023/08/22 03:45:32;;;;;;;8.80;6.60;;;;;;;;;;5074065;28;20048;-63
2023/08/22 03:48:03;;;;;;;10.52;7.28;;;;;;;;;;5074145;28;20041;-63
2023/08/22 03:50:30;;;;;;;14.52;6.88;;;;;;;;;;5090910;28;20044;-63
2023/08/22 03:52:56;;;;;;;12.50;7.80;;;;;;;;;;5094299;28;20134;-63
2023/08/22 03:55:22;;;;;;;10.35;7.50;;;;;;;;;;5094056;28;20127;-63
2023/08/22 03:57:48;;;;;;;11.07;7.10;;;;;;;;;;5093736;28;20056;-63
2023/08/22 04:00:14;;;;;;;10.50;7.78;;;;;;;;;;5093693;28;20044;-63
2023/08/22 04:02:41;;;;;;;9.43;7.18;;;;;;;;;;5092365;28;20079;-62
2023/08/22 04:05:07;;;;;;;14.20;7.53;;;;;;;;;;5093359;28;20039;-63
2023/08/22 04:07:33;;;;;;;9.30;6.93;;;;;;;;;;5093943;28;20040;-63
2023/08/22 04:09:59;;;;;;;11.13;7.45;;;;;;;;;;5093871;28;20088;-63
2023/08/22 04:12:25;;;;;;;10.02;7.88;;;;;;;;;;5093352;28;20048;-63
2023/08/22 04:14:51;;;;;;;10.25;7.60;;;;;;;;;;5093634;28;20036;-63
2023/08/22 04:17:17;;;;;;;10.10;8.35;;;;;;;;;;5093821;28;20040;-63
2023/08/22 04:19:43;;;;;;;10.02;8.15;;;;;;;;;;5093304;28;20036;-63
2023/08/22 04:22:09;;;;;;;11.40;7.70;;;;;;;;;;5093463;28;20048;-63
2023/08/22 04:24:35;;;;;;;10.43;7.32;;;;;;;;;;5093643;28;20123;-63
2023/08/22 04:27:01;;;;;;;7.90;6.65;;;;;;;;;;5075641;28;20036;-63
2023/08/22 04:29:27;;;;;;;10.07;6.85;;;;;;;;;;5072821;28;20044;-62
2023/08/22 04:31:53;;;;;;;8.90;7.32;;;;;;;;;;5073225;28;20039;-63
2023/08/22 04:34:19;;;;;;;8.38;6.78;;;;;;;;;;5071230;28;20502;-63
2023/08/22 04:36:45;;;;;;;10.82;7.80;;;;;;;;;;5073248;28;20036;-63
2023/08/22 04:39:11;;;;;;;9.55;6.90;;;;;;;;;;5073091;28;20124;-64
2023/08/22 04:41:37;;;;;;;11.05;7.68;;;;;;;;;;5072398;28;20041;-64
2023/08/22 04:44:03;;;;;;;8.82;6.72;;;;;;;;;;5073087;28;20394;-64
2023/08/22 04:46:29;;;;;;;7.32;4.97;;;;;;;;;;5072962;28;20742;-64
2023/08/22 04:48:55;;;;;;;10.23;5.40;;;;;;;;;;5075426;28;20094;-64
2023/08/22 04:51:21;;;;;;;6.15;5.20;;;;;;;;;;5093085;28;20032;-64
2023/08/22 04:53:50;;;;;;;7.72;5.50;;;;;;;;;;5093054;28;20040;-64
2023/08/22 04:56:16;;;;;;;8.40;5.90;;;;;;;;;;5092682;28;20100;-64
2023/08/22 04:58:42;;;;;;;10.60;7.13;;;;;;;;;;5092889;28;20471;-64
2023/08/22 05:01:08;;;;;;;7.70;6.90;;;;;;;;;;5091601;28;20418;-64
2023/08/22 05:03:34;;;;;;;11.63;7.35;;;;;;;;;;5092427;28;20055;-64
2023/08/22 05:06:00;;;;;;;12.52;7.95;;;;;;;;;;5092719;28;20515;-64
2023/08/22 05:08:26;;;;;;;12.15;7.97;;;;;;;;;;5091461;28;20036;-64
2023/08/22 05:10:52;;;;;;;14.95;7.55;;;;;;;;;;5092245;28;20044;-64
2023/08/22 05:13:18;;;;;;;11.88;7.40;;;;;;;;;;5091094;28;20055;-64
2023/08/22 05:15:44;;;;;;;11.75;7.85;;;;;;;;;;5092652;28;20044;-64
2023/08/22 05:18:10;;;;;;;9.90;7.90;;;;;;;;;;5092473;28;20040;-64
2023/08/22 05:20:37;;;;;;;12.13;8.40;;;;;;;;;;5092146;28;20047;-64
2023/08/22 05:23:03;;;;;;;15.10;8.80;;;;;;;;;;5092367;28;20040;-64
2023/08/22 05:25:29;;;;;;;14.68;8.13;;;;;;;;;;5087497;28;20040;-64
2023/08/22 05:27:55;;;;;;;9.88;7.70;;;;;;;;;;5071583;28;20097;-64
2023/08/22 05:30:22;;;;;;;12.05;7.20;;;;;;;;;;5072026;28;20463;-64
2023/08/22 05:32:48;;;;;;;14.43;7.35;;;;;;;;;;5072119;28;20036;-64
2023/08/22 05:35:14;;;;;;;9.60;7.22;;;;;;;;;;5071513;28;20036;-64
2023/08/22 05:37:40;;;;;;;11.35;8.05;;;;;;;;;;5072138;28;20454;-64
2023/08/22 05:40:07;;;;;;;12.15;8.07;;;;;;;;;;5070354;28;20041;-64
2023/08/22 05:42:34;;;;;;;14.40;7.95;;;;;;;;;;5071457;28;20087;-64
2023/08/22 05:45:00;;;;;;;9.80;8.13;;;;;;;;;;5071862;28;20467;-64
2023/08/22 05:47:26;;;;;;;11.82;8.63;;;;;;;;;;5071579;28;20064;-64
2023/08/22 05:49:52;;;;;;;13.77;9.93;;;;;;;;;;5083444;28;20425;-64
2023/08/22 05:52:19;;;;;;;14.45;10.40;;;;;;;;;;5092023;28;20051;-64
2023/08/22 05:54:45;;;;;;;15.15;9.07;;;;;;;;;;5092018;28;20086;-64
2023/08/22 05:57:11;;;;;;;16.05;10.05;;;;;;;;;;5091777;28;20036;-64
2023/08/22 05:59:37;;;;;;;15.52;11.48;;;;;;;;;;5092063;28;20044;-64
2023/08/22 06:02:03;;;;;;;16.77;11.48;;;;;;;;;;5091928;28;20482;-64
2023/08/22 06:04:29;;;;;;;16.58;12.00;;;;;;;;;;5091511;28;20047;-64
2023/08/22 06:06:55;;;;;;;20.38;12.35;;;;;;;;;;5091705;28;20100;-64
2023/08/22 06:09:22;;;;;;;14.32;10.57;;;;;;;;;;5090985;28;20039;-64
2023/08/22 06:11:47;;;;;;;20.35;9.98;;;;;;;;;;5091095;28;20492;-64
2023/08/22 06:14:14;;;;;;;19.90;12.25;;;;;;;;;;5077616;28;20129;-64
2023/08/22 06:16:40;;;;;;;19.50;9.70;;;;;;;;;;5079440;28;20040;-64
2023/08/22 06:19:06;;;;;;;17.70;9.88;;;;;;;;;;5091093;28;20059;-65
2023/08/22 06:21:32;;;;;;;17.42;9.30;;;;;;;;;;5091214;28;20028;-65
2023/08/22 06:23:58;;;;;;;19.45;11.07;;;;;;;;;;5092718;28;20387;-65
2023/08/22 06:26:24;;;;;;;14.90;9.52;;;;;;;;;;5095317;28;20040;-65
2023/08/22 06:28:50;;;;;;;17.98;11.20;;;;;;;;;;5094851;28;20052;-65
2023/08/22 06:31:16;;;;;;;16.98;9.50;;;;;;;;;;5095410;28;20040;-65
2023/08/22 06:33:42;;;;;;;19.38;10.15;;;;;;;;;;5094698;28;20082;-65
2023/08/22 06:36:08;;;;;;;17.27;10.63;;;;;;;;;;5094866;28;20059;-65
2023/08/22 06:38:34;;;;;;;14.35;8.35;;;;;;;;;;5095383;28;20079;-64
2023/08/22 06:41:07;;;;;;;14.32;7.75;;;;;;;;;;5094577;28;20044;-64
2023/08/22 06:43:33;;;;;;;13.13;8.18;;;;;;;;;;5095221;28;20043;-64
2023/08/22 06:45:59;;;;;;;18.10;8.45;;;;;;;;;;5095117;28;20046;-64
2023/08/22 06:48:27;;;;;;;14.82;8.45;;;;;;;;;;5093374;28;20075;-64
2023/08/22 06:50:53;;;;;;;12.85;8.02;;;;;;;;;;5094988;28;20093;-64
2023/08/22 06:53:20;;;;;;;16.88;8.13;;;;;;;;;;5094997;28;20473;-64
2023/08/22 06:55:49;;;;;;;15.85;8.10;;;;;;;;;;5080324;28;20044;-64
2023/08/22 06:58:15;;;;;;;16.33;8.40;;;;;;;;;;5094035;28;20044;-64
2023/08/22 07:00:41;;;;;;;12.20;7.50;;;;;;;;;;5094251;28;20063;-65
2023/08/22 07:03:07;;;;;;;9.65;6.80;;;;;;;;;;5094217;28;20459;-65
2023/08/22 07:05:34;;;;;;;14.77;7.40;;;;;;;;;;5092875;28;20093;-65
2023/08/22 07:08:00;;;;;;;12.32;6.53;;;;;;;;;;5072248;28;20040;-64
2023/08/22 07:10:27;;;;;;;15.15;6.50;;;;;;;;;;5093444;28;20048;-64
2023/08/22 07:12:53;;;;;;;10.13;5.72;;;;;;;;;;5094186;28;20040;-64
2023/08/22 07:15:19;;;;;;;11.98;6.07;;;;;;;;;;5094147;28;20048;-65
2023/08/22 07:17:45;;;;;;;10.82;5.82;;;;;;;;;;5093494;28;20441;-64
2023/08/22 07:20:11;;;;;;;9.52;5.50;;;;;;;;;;5092387;28;20069;-65
2023/08/22 07:22:37;;;;;;;13.13;5.80;;;;;;;;;;5093902;28;20044;-64
2023/08/22 07:25:03;;;;;;;10.07;5.22;;;;;;;;;;5092484;28;20044;-64
2023/08/22 07:27:29;;;;;;;10.07;5.50;;;;;;;;;;5091271;28;20036;-64
2023/08/22 07:29:55;;;;;;;8.40;4.88;;;;;;;;;;5093823;28;20040;-64
2023/08/22 07:32:21;;;;;;;9.93;5.13;;;;;;;;;;5093321;28;20050;-65
2023/08/22 07:34:48;;;;;;;10.30;5.43;;;;;;;;;;5093122;28;20036;-65
2023/08/22 07:37:15;;;;;;;9.60;5.47;;;;;;;;;;5093268;28;20520;-65
2023/08/22 07:39:41;;;;;;;10.45;5.18;;;;;;;;;;5092140;28;20047;-64
2023/08/22 07:42:07;;;;;;;15.15;6.70;;;;;;;;;;5093191;28;20047;-65
2023/08/22 07:44:33;;;;;;;16.65;5.18;;;;;;;;;;5093704;28;20093;-65
2023/08/22 07:46:59;;;;;;;12.15;5.40;;;;;;;;;;5092973;28;20036;-64
2023/08/22 07:49:26;;;;;;;9.07;5.05;;;;;;;;;;5093617;28;20382;-64
2023/08/22 07:51:52;;;;;;;8.10;4.72;;;;;;;;;;5093713;28;20852;-64
2023/08/22 07:54:18;;;;;;;10.57;4.53;;;;;;;;;;5092755;28;20040;-64
2023/08/22 07:56:45;;;;;;;9.32;5.20;;;;;;;;;;5092831;28;20058;-64
2023/08/22 07:59:11;;;;;;;7.15;4.50;;;;;;;;;;5093601;28;20535;-65
2023/08/22 08:01:37;;;;;;;7.45;4.70;;;;;;;;;;5092567;28;20094;-64
2023/08/22 08:04:03;;;;;;;7.47;3.88;;;;;;;;;;5093739;28;20094;-64
2023/08/22 08:06:36;;;;;;;8.75;5.07;;;;;;;;;;5092919;28;20039;-64
2023/08/22 08:09:04;;;;;;;13.07;4.60;;;;;;;;;;5092572;28;20434;-64
2023/08/22 08:11:30;;;;;;;9.20;4.70;;;;;;;;;;5079662;28;20079;-64
2023/08/22 08:13:57;;;;;;;10.75;5.40;;;;;;;;;;5093203;28;20040;-63
2023/08/22 08:16:23;;;;;;;11.07;4.90;;;;;;;;;;5092438;28;20044;-64
2023/08/22 08:18:50;;;;;;;9.30;4.43;;;;;;;;;;5093211;28;20086;-64
2023/08/22 08:21:16;;;;;;;7.95;4.70;;;;;;;;;;5092983;28;20445;-64
2023/08/22 08:23:44;;;;;;;9.27;4.10;;;;;;;;;;5092446;28;20044;-64
2023/08/22 08:26:10;;;;;;;9.00;3.67;;;;;;;;;;5082060;28;20044;-64
2023/08/22 08:28:36;;;;;;;8.88;4.53;;;;;;;;;;5076280;28;20505;-64
2023/08/22 08:31:02;;;;;;;8.00;3.83;;;;;;;;;;5092608;28;20042;-64
2023/08/22 08:33:28;;;;;;;6.80;3.50;;;;;;;;;;5092902;28;20048;-64
2023/08/22 08:35:54;;;;;;;6.90;3.20;;;;;;;;;;5092812;28;20044;-64
2023/08/22 08:38:20;;;;;;;6.07;3.60;;;;;;;;;;5092145;28;20050;-64
2023/08/22 08:40:46;;;;;;;7.20;3.38;;;;;;;;;;5092656;28;20040;-64
2023/08/22 08:43:13;;;;;;;5.28;3.10;;;;;;;;;;5092565;28;20048;-65
2023/08/22 08:45:40;;;;;;;5.45;3.13;;;;;;;;;;5091804;28;20067;-65
2023/08/22 08:48:06;;;;;;;7.68;3.45;;;;;;;;;;5092695;28;20040;-65
2023/08/22 08:50:32;;;;;;;6.32;2.85;;;;;;;;;;5088083;28;20112;-65
2023/08/22 08:53:02;;;;;;;5.07;1.90;;;;;;;;;;5090625;28;20047;-65
2023/08/22 08:55:28;;;;;;;4.72;2.13;;;;;;;;;;5092683;28;20387;-64
2023/08/22 08:57:55;;;;;;;3.38;2.30;;;;;;;;;;5092264;28;20047;-67
2023/08/22 09:00:21;;;;;;;4.75;1.73;;;;;;;;;;5092001;28;20058;-67
2023/08/22 09:02:47;;;;;;;4.57;1.73;;;;;;;;;;5091914;28;20231;-67
2023/08/22 09:05:13;;;;;;;5.05;1.63;;;;;;;;;;5091726;28;20076;-66
2023/08/22 09:07:39;;;;;;;4.07;1.63;;;;;;;;;;5092420;28;20068;-65
2023/08/22 09:10:06;;;;;;;4.07;1.60;;;;;;;;;;5091278;28;20504;-64
2023/08/22 09:12:35;;;;;;;4.18;1.70;;;;;;;;;;5091612;28;20145;-64
2023/08/22 09:15:02;;;;;;;2.35;1.70;;;;;;;;;;5089224;28;20078;-64
2023/08/22 09:17:29;;;;;;;3.75;1.80;;;;;;;;;;5091599;28;20122;-65
2023/08/22 09:19:55;;;;;;;4.28;1.88;;;;;;;;;;5092188;28;20363;-64
2023/08/22 09:22:27;;;;;;;4.53;1.88;;;;;;;;;;5091532;28;20039;-65
2023/08/22 09:24:54;;;;;;;6.53;2.00;;;;;;;;;;5090881;28;20050;-65
2023/08/22 09:27:21;;;;;;;4.90;2.20;;;;;;;;;;5090894;28;20051;-65
2023/08/22 09:29:47;;;;;;;5.63;2.00;;;;;;;;;;5091090;28;20052;-66
2023/08/22 09:32:13;;;;;;;4.63;1.85;;;;;;;;;;5091509;28;20044;-65
2023/08/22 09:34:51;;;;;;;3.78;2.40;;;;;;;;;;5091476;28;20043;-64
2023/08/22 09:37:31;;;;;;;4.78;2.80;;;;;;;;;;5091246;28;20055;-64
2023/08/22 09:39:58;;;;;;;5.00;3.05;;;;;;;;;;5091832;28;20684;-65
2023/08/22 09:42:27;;;;;;;5.05;2.67;;;;;;;;;;5091429;28;20040;-65
2023/08/22 09:44:55;;;;;;;6.40;4.15;;;;;;;;;;5091090;28;20071;-65
2023/08/22 09:47:21;;;;;;;4.97;3.72;;;;;;;;;;5091370;28;20036;-66
2023/08/22 09:49:49;;;;;;;7.72;3.22;;;;;;;;;;5091353;28;20552;-66
2023/08/22 09:52:15;;;;;;;7.50;3.83;;;;;;;;;;5091099;28;20032;-65
2023/08/22 09:54:43;;;;;;;6.60;3.15;;;;;;;;;;5091420;28;20040;-65
2023/08/22 09:57:10;;;;;;;5.60;3.05;;;;;;;;;;5091422;28;20040;-65
2023/08/22 09:59:36;;;;;;;6.47;3.33;;;;;;;;;;5091388;28;20135;-64
2023/08/22 10:02:05;;;;;;;8.57;3.15;;;;;;;;;;5089379;28;20466;-64
2023/08/22 10:04:32;;;;;;;8.07;3.10;;;;;;;;;;5091179;28;20048;-64
2023/08/22 10:06:58;;;;;;;4.97;3.00;;;;;;;;;;5091116;28;20075;-64
2023/08/22 10:09:26;;;;;;;5.85;2.80;;;;;;;;;;5090968;28;20423;-64
2023/08/22 10:11:56;;;;;;;6.60;3.22;;;;;;;;;;5091081;28;20043;-64
2023/08/22 10:14:33;;;;;;;5.50;2.78;;;;;;;;;;5090496;28;20040;-64
2023/08/22 10:16:59;;;;;;;8.25;2.92;;;;;;;;;;5091222;28;20048;-63
2023/08/22 10:19:26;;;;;;;7.55;2.90;;;;;;;;;;5091317;28;20089;-64
2023/08/22 10:21:53;;;;;;;3.72;3.08;;;;;;;;;;5090430;28;20105;-64
2023/08/22 10:24:28;;;;;;;3.35;2.40;;;;;;;;;;5091238;28;20048;-64
2023/08/22 10:27:03;;;;;;;6.18;3.85;;;;;;;;;;5088710;28;20610;-64
2023/08/22 10:29:34;;;;;;;6.88;3.40;;;;;;;;;;5090173;28;20071;-63
2023/08/22 10:32:03;;;;;;;4.13;2.83;;;;;;;;;;5090516;28;20085;-64
2023/08/22 10:34:34;;;;;;;4.65;2.38;;;;;;;;;;5090591;28;20055;-64
2023/08/22 10:37:01;;;;;;;4.75;2.83;;;;;;;;;;5090723;28;20036;-64
2023/08/22 10:39:43;;;;;;;5.95;2.25;;;;;;;;;;5091198;28;20486;-64
2023/08/22 10:42:15;;;;;;;2.40;1.50;;;;;;;;;;5090867;28;20040;-64
2023/08/22 10:44:42;;;;;;;4.53;1.73;;;;;;;;;;5090584;28;20079;-64
2023/08/22 10:47:18;;;;;;;3.70;2.10;;;;;;;;;;5091062;28;20064;-64
2023/08/22 10:49:48;;;;;;;5.95;2.90;;;;;;;;;;5090462;28;20036;-64
2023/08/22 10:52:14;;;;;;;4.95;2.20;;;;;;;;;;5090678;28;20044;-64
2023/08/22 10:55:01;;;;;;;5.20;1.95;;;;;;;;;;5090446;28;20157;-64
2023/08/22 10:57:28;;;;;;;5.40;2.10;;;;;;;;;;5090801;28;20061;-64
2023/08/22 10:59:55;;;;;;;6.22;2.15;;;;;;;;;;5090529;28;20535;-64
2023/08/22 11:02:21;;;;;;;4.93;2.00;;;;;;;;;;5089945;28;20047;-64
2023/08/22 11:04:48;;;;;;;4.57;1.50;;;;;;;;;;5090828;28;20475;-64
2023/08/22 11:07:14;;;;;;;4.03;1.23;;;;;;;;;;5089859;28;20047;-65
2023/08/22 11:09:40;;;;;;;4.40;1.60;;;;;;;;;;5091338;28;20056;-66
2023/08/22 11:12:23;;;;;;;3.70;1.40;;;;;;;;;;5094693;28;20040;-65
2023/08/22 11:14:50;;;;;;;3.45;1.33;;;;;;;;;;5093439;28;20044;-63
2023/08/22 11:17:17;;;;;;;3.45;1.48;;;;;;;;;;5094467;28;20028;-63
2023/08/22 11:19:43;;;;;;;3.58;1.48;;;;;;;;;;5094375;28;20043;-64
2023/08/22 11:22:10;;;;;;;2.78;1.65;;;;;;;;;;5092450;28;20481;-64
2023/08/22 11:24:36;;;;;;;5.43;1.67;;;;;;;;;;5094320;28;20127;-64
2023/08/22 11:27:05;;;;;;;5.50;1.85;;;;;;;;;;5093492;28;20040;-65
2023/08/22 11:29:47;;;;;;;5.28;1.50;;;;;;;;;;5082056;28;20106;-65
2023/08/22 11:32:24;;;;;;;1.85;1.10;;;;;;;;;;5073840;28;20048;-65
2023/08/22 11:34:51;;;;;;;3.70;1.42;;;;;;;;;;5090671;28;20032;-65
2023/08/22 11:37:18;;;;;;;3.22;1.52;;;;;;;;;;5093678;28;20048;-64
2023/08/22 11:39:47;;;;;;;4.38;1.38;;;;;;;;;;5094016;28;20040;-65
2023/08/22 11:42:15;;;;;;;3.75;1.60;;;;;;;;;;5093376;28;20047;-64
2023/08/22 11:44:53;;;;;;;3.60;1.50;;;;;;;;;;5092553;28;20043;-65
2023/08/22 11:47:20;;;;;;;3.30;1.75;;;;;;;;;;5093878;28;20049;-65
2023/08/22 11:49:50;;;;;;;6.03;1.80;;;;;;;;;;5093682;28;20044;-65
2023/08/22 11:52:16;;;;;;;3.67;1.92;;;;;;;;;;5093191;28;20052;-65
2023/08/22 11:54:45;;;;;;;4.82;1.48;;;;;;;;;;5093617;28;20569;-65
2023/08/22 11:57:12;;;;;;;5.10;2.03;;;;;;;;;;5093805;28;20157;-65
2023/08/22 11:59:43;;;;;;;5.35;2.15;;;;;;;;;;5093367;28;20054;-66
2023/08/22 12:02:11;;;;;;;1.98;1.42;;;;;;;;;;5093091;28;20589;-65
2023/08/22 12:04:41;;;;;;;1.55;1.35;;;;;;;;;;5093385;28;20032;-65
2023/08/22 12:07:07;;;;;;;3.08;1.45;;;;;;;;;;5093135;28;20486;-64
2023/08/22 12:09:33;;;;;;;5.28;1.63;;;;;;;;;;5093195;28;20047;-64
2023/08/22 12:12:17;;;;;;;6.47;1.90;;;;;;;;;;5093286;28;20577;-65
2023/08/22 12:14:43;;;;;;;4.50;1.75;;;;;;;;;;5092644;28;20470;-64
2023/08/22 12:17:09;;;;;;;4.32;1.50;;;;;;;;;;5093389;28;20047;-65
2023/08/22 12:19:35;;;;;;;4.75;2.13;;;;;;;;;;5093244;28;20059;-65
2023/08/22 12:22:01;;;;;;;3.10;1.55;;;;;;;;;;5091270;28;20036;-65
2023/08/22 12:24:27;;;;;;;6.15;1.77;;;;;;;;;;5093092;28;20036;-65
2023/08/22 12:26:53;;;;;;;3.17;1.40;;;;;;;;;;5093052;28;20782;-65
2023/08/22 12:29:19;;;;;;;3.83;1.48;;;;;;;;;;5092408;28;20135;-66
2023/08/22 12:31:46;;;;;;;4.13;1.50;;;;;;;;;;5093045;28;20043;-65
2023/08/22 12:34:13;;;;;;;2.60;1.20;;;;;;;;;;5092362;28;20054;-65
2023/08/22 12:36:39;;;;;;;2.95;1.50;;;;;;;;;;5092260;28;20056;-65
2023/08/22 12:39:05;;;;;;;6.60;2.10;;;;;;;;;;5092399;28;20040;-65
2023/08/22 12:41:31;;;;;;;5.53;2.00;;;;;;;;;;5092866;28;20048;-64
2023/08/22 12:43:57;;;;;;;5.93;2.40;;;;;;;;;;5092306;28;20048;-64
2023/08/22 12:46:23;;;;;;;4.88;1.98;;;;;;;;;;5092449;28;20044;-65
2023/08/22 12:48:49;;;;;;;5.55;2.05;;;;;;;;;;5092983;28;20555;-66
2023/08/22 12:51:15;;;;;;;5.47;2.17;;;;;;;;;;5091977;28;20079;-66
2023/08/22 12:53:41;;;;;;;7.05;2.83;;;;;;;;;;5078365;28;20117;-66
2023/08/22 12:56:07;;;;;;;4.93;3.17;;;;;;;;;;5092214;28;20036;-65
2023/08/22 12:58:34;;;;;;;5.60;2.50;;;;;;;;;;5091637;28;20066;-65
2023/08/22 13:01:00;;;;;;;6.30;2.60;;;;;;;;;;5092691;28;20637;-65
2023/08/22 13:03:26;;;;;;;5.15;2.55;;;;;;;;;;5091860;28;20482;-65
2023/08/22 13:05:52;;;;;;;6.35;2.17;;;;;;;;;;5092105;28;20040;-65
2023/08/22 13:08:18;;;;;;;3.55;1.50;;;;;;;;;;5092535;28;20422;-64
2023/08/22 13:10:44;;;;;;;5.47;2.40;;;;;;;;;;5091929;28;20048;-65
2023/08/22 13:13:10;;;;;;;3.70;1.90;;;;;;;;;;5091961;28;20043;-65
2023/08/22 13:15:36;;;;;;;3.50;1.45;;;;;;;;;;5092413;28;20093;-65
2023/08/22 13:18:02;;;;;;;3.58;1.40;;;;;;;;;;5092027;28;20124;-64
2023/08/22 13:20:30;;;;;;;3.05;1.67;;;;;;;;;;5091361;28;20047;-65
2023/08/22 13:22:56;;;;;;;5.00;1.38;;;;;;;;;;5091900;28;20048;-65
2023/08/22 13:25:22;;;;;;;2.92;1.05;;;;;;;;;;5091527;28;20040;-65
2023/08/22 13:27:48;;;;;;;4.03;1.40;;;;;;;;;;5091468;28;20570;-65
2023/08/22 13:30:14;;;;;;;5.63;2.20;;;;;;;;;;5091589;28;20115;-65
2023/08/22 13:32:40;;;;;;;6.07;1.73;;;;;;;;;;5091628;28;20592;-65
2023/08/22 13:35:08;;;;;;;3.83;1.90;;;;;;;;;;5091142;28;20050;-64
2023/08/22 13:37:34;;;;;;;3.55;1.70;;;;;;;;;;5091930;28;20676;-64
2023/08/22 13:40:04;;;;;;;4.53;1.75;;;;;;;;;;5091877;28;20036;-64
2023/08/22 13:42:30;;;;;;;5.72;1.63;;;;;;;;;;5090465;28;20048;-65
2023/08/22 13:44:56;;;;;;;3.88;1.63;;;;;;;;;;5091893;28;20165;-65
2023/08/22 13:47:24;;;;;;;5.60;1.35;;;;;;;;;;5091769;28;20487;-65
2023/08/22 13:49:51;;;;;;;2.53;1.58;;;;;;;;;;5091174;28;20073;-64
2023/08/22 13:52:17;;;;;;;5.13;1.25;;;;;;;;;;5091318;28;20094;-64
2023/08/22 13:54:43;;;;;;;3.42;1.80;;;;;;;;;;5091412;28;20062;-64
2023/08/22 13:57:09;;;;;;;6.00;2.25;;;;;;;;;;5090995;28;20173;-64
2023/08/22 13:59:37;;;;;;;6.80;1.80;;;;;;;;;;5091405;28;20036;-64
2023/08/22 14:02:03;;;;;;;8.82;1.77;;;;;;;;;;5090643;28;20036;-65
2023/08/22 14:04:30;;;;;;;4.00;1.50;;;;;;;;;;5091092;28;20050;-65
2023/08/22 14:06:56;;;;;;;2.22;0.90;;;;;;;;;;5091167;28;20090;-64
2023/08/22 14:09:22;;;;;;;5.32;1.55;;;;;;;;;;5091424;28;20043;-65
2023/08/22 14:11:49;;;;;;;5.40;1.20;;;;;;;;;;5090718;28;20238;-67
2023/08/22 14:14:15;;;;;;;3.47;1.13;;;;;;;;;;5090601;28;20044;-65
2023/08/22 14:16:42;;;;;;;4.72;1.55;;;;;;;;;;5088086;28;20052;-67
2023/08/22 14:19:08;;;;;;;4.32;1.83;;;;;;;;;;5090896;28;20040;-65
2023/08/22 14:21:34;;;;;;;6.40;1.98;;;;;;;;;;5091263;28;20115;-65
2023/08/22 14:24:00;;;;;;;4.60;1.75;;;;;;;;;;5091030;28;20550;-65
2023/08/22 14:26:26;;;;;;;5.35;2.40;;;;;;;;;;5091004;28;20115;-65
2023/08/22 14:28:52;;;;;;;4.10;1.77;;;;;;;;;;5090984;28;20101;-65
2023/08/22 14:31:18;;;;;;;9.48;2.20;;;;;;;;;;5091484;28;20598;-65
2023/08/22 14:33:44;;;;;;;4.88;2.03;;;;;;;;;;5091338;28;20591;-65
2023/08/22 14:36:10;;;;;;;6.97;1.95;;;;;;;;;;5091450;28;20044;-65